Time;durP1;ratioP1;P1;durP2;ratioP2;P2;SDS_P1;SDS_P2;PMS_P1;PMS_P2;Temp;Humidity;BMP_temperature;BMP_pressure;BME280_temperature;BME280_humidity;BME280_pressure;Samples;Min_cycle;Max_cycle;Signal;HPM_P1;HPM_P2
2022/05/31 00:01:58;;;;;;;4.70;2.70;;;;;;;-149.78;100.00;50228.94;5132849;27;20035;-70
2022/05/31 00:04:24;;;;;;;5.43;3.13;;;;;;;-149.78;100.00;50217.19;5101016;27;20493;-70
2022/05/31 00:06:50;;;;;;;9.32;3.80;;;;;;;-149.78;100.00;50213.28;5066740;28;20036;-71
2022/05/31 00:09:16;;;;;;;8.25;3.65;;;;;;;-149.78;100.00;50264.13;5126298;27;20557;-71
2022/05/31 00:11:42;;;;;;;4.75;3.00;;;;;;;-149.78;100.00;50217.19;5130169;27;20051;-71
2022/05/31 00:14:10;;;;;;;7.97;3.47;;;;;;;-149.78;100.00;50240.66;5120858;27;20037;-70
2022/05/31 00:16:36;;;;;;;7.75;3.15;;;;;;;-149.78;100.00;50244.59;5108291;28;20123;-70
2022/05/31 00:19:02;;;;;;;5.13;2.92;;;;;;;-149.78;100.00;50232.84;5113385;27;20118;-71
2022/05/31 00:22:04;;;;;;;8.27;3.40;;;;;;;-149.78;100.00;50209.38;5112339;27;20077;-70
2022/05/31 00:24:30;;;;;;;7.93;3.40;;;;;;;-149.78;100.00;50209.38;5115159;27;20041;-70
2022/05/31 00:26:57;;;;;;;6.53;3.17;;;;;;;-149.78;100.00;50228.94;5090341;27;20092;-70
2022/05/31 00:29:23;;;;;;;5.43;3.00;;;;;;;-149.78;100.00;50248.50;5123172;27;20443;-70
2022/05/31 00:31:51;;;;;;;5.72;3.55;;;;;;;-149.78;100.00;50240.66;5114821;27;20055;-71
2022/05/31 00:34:18;;;;;;;8.57;4.03;;;;;;;-149.78;100.00;50232.84;5128861;27;20501;-71
2022/05/31 00:36:46;;;;;;;5.22;2.97;;;;;;;-149.78;100.00;50225.03;5126455;27;20033;-71
2022/05/31 00:39:12;;;;;;;7.72;3.30;;;;;;;-149.78;100.00;50221.13;5120388;27;20031;-70
2022/05/31 00:41:39;;;;;;;5.55;3.40;;;;;;;-149.78;100.00;50232.84;5100447;27;20414;-70
2022/05/31 00:44:11;;;;;;;6.25;3.25;;;;;;;-149.78;100.00;50228.94;5110992;28;20028;-70
2022/05/31 00:47:24;;;;;;;8.35;3.38;;;;;;;-149.78;100.00;50248.50;5120385;27;20474;-70
2022/05/31 00:49:57;;;;;;;6.00;3.13;;;;;;;-149.78;100.00;50232.84;5103615;27;20100;-71
2022/05/31 00:52:27;;;;;;;7.07;3.28;;;;;;;-149.78;100.00;50244.59;5123570;27;20034;-70
2022/05/31 00:55:00;;;;;;;5.90;3.70;;;;;;;-149.78;100.00;50256.31;5096484;28;20031;-70
2022/05/31 00:57:28;;;;;;;7.18;4.47;;;;;;;-149.78;100.00;50232.84;5102719;27;20030;-71
2022/05/31 00:59:58;;;;;;;7.43;4.45;;;;;;;-149.78;100.00;50244.59;5101999;27;20027;-71
2022/05/31 01:02:26;;;;;;;7.15;4.22;;;;;;;-149.78;100.00;50201.56;5113337;27;21911;-70
2022/05/31 01:04:57;;;;;;;11.25;4.40;;;;;;;-149.78;100.00;50232.84;5136345;27;20056;-71
2022/05/31 01:07:24;;;;;;;;;;;;;;;-149.78;100.00;50244.59;5105250;27;20031;-71
2022/05/31 01:09:51;;;;;;;7.22;3.70;;;;;;;-149.78;100.00;50225.03;5111034;27;19973;-70
2022/05/31 01:12:18;;;;;;;4.88;3.00;;;;;;;-149.78;100.00;50262.19;5132399;27;20031;-70
2022/05/31 01:14:43;;;;;;;8.57;3.67;;;;;;;-149.78;100.00;50223.06;5101845;28;20023;-70
2022/05/31 01:17:19;;;;;;;7.47;3.70;;;;;;;-149.78;100.00;50221.13;5132327;27;20037;-71
2022/05/31 01:20:01;;;;;;;10.88;4.03;;;;;;;-149.78;100.00;50207.44;5133276;27;20027;-70
2022/05/31 01:22:36;;;;;;;6.72;3.30;;;;;;;-149.78;100.00;50213.28;5114079;27;20171;-70
2022/05/31 01:25:23;;;;;;;7.35;2.72;;;;;;;-149.78;100.00;50197.66;5117854;27;20047;-70
2022/05/31 01:28:29;;;;;;;6.65;2.95;;;;;;;-149.78;100.00;50189.81;5104993;27;20031;-71
2022/05/31 01:30:56;;;;;;;7.40;2.83;;;;;;;-149.78;100.00;50201.56;5122745;27;20031;-71
2022/05/31 01:33:26;;;;;;;4.70;2.92;;;;;;;-149.78;100.00;50207.44;5118219;27;20054;-70
2022/05/31 01:35:53;;;;;;;6.90;3.20;;;;;;;-149.78;100.00;50225.03;5122457;27;20054;-70
2022/05/31 01:38:30;;;;;;;8.38;3.22;;;;;;;-149.78;100.00;50234.81;5127900;27;20360;-70
2022/05/31 01:41:08;;;;;;;5.75;3.35;;;;;;;-149.78;100.00;50228.94;5124346;27;20031;-70
2022/05/31 01:43:34;;;;;;;5.93;2.92;;;;;;;-149.78;100.00;50219.16;5125434;27;20067;-70
2022/05/31 01:46:07;;;;;;;7.70;2.90;;;;;;;-149.78;100.00;50197.66;5116517;27;20407;-70
2022/05/31 01:48:36;;;;;;;4.50;3.08;;;;;;;-149.78;100.00;50189.81;5110758;27;20034;-70
2022/05/31 01:51:02;;;;;;;7.60;2.70;;;;;;;-149.78;100.00;50232.84;5120415;27;20065;-71
2022/05/31 01:53:29;;;;;;;4.47;2.80;;;;;;;-149.78;100.00;50221.13;5132020;27;20038;-70
2022/05/31 01:55:55;;;;;;;4.32;2.92;;;;;;;-149.78;100.00;50248.50;5114834;27;20039;-71
2022/05/31 01:58:25;;;;;;;4.70;3.30;;;;;;;-149.78;100.00;50223.06;5117363;27;20163;-71
2022/05/31 02:00:51;;;;;;;8.55;3.38;;;;;;;-149.78;100.00;50217.19;5127845;27;20035;-70
2022/05/31 02:03:19;;;;;;;6.68;3.55;;;;;;;-149.78;100.00;50197.66;5110922;27;20631;-70
2022/05/31 02:05:52;;;;;;;5.10;3.45;;;;;;;-149.78;100.00;50219.16;5104534;27;20031;-70
2022/05/31 02:08:20;;;;;;;5.70;3.10;;;;;;;-149.78;100.00;50244.59;5131266;27;20072;-70
2022/05/31 02:10:47;;;;;;;4.85;3.25;;;;;;;-149.78;100.00;50217.19;5126343;27;20134;-70
2022/05/31 02:13:14;;;;;;;6.50;3.28;;;;;;;-149.78;100.00;50213.28;5124577;27;20042;-71
2022/05/31 02:15:40;;;;;;;8.70;3.75;;;;;;;-149.78;100.00;50221.13;5079897;27;20040;-71
2022/05/31 02:18:07;;;;;;;9.55;3.55;;;;;;;-149.78;100.00;50209.38;5124651;27;20035;-70
2022/05/31 02:20:33;;;;;;;6.72;3.40;;;;;;;-149.78;100.00;50203.50;5098610;27;20055;-70
2022/05/31 02:22:58;;;;;;;7.28;3.65;;;;;;;-149.78;100.00;50240.66;5077680;27;20114;-70
2022/05/31 02:25:24;;;;;;;7.97;3.13;;;;;;;-149.78;100.00;50213.28;5129149;27;20029;-70
2022/05/31 02:27:50;;;;;;;7.38;3.45;;;;;;;-149.78;100.00;50213.28;5119646;27;20023;-70
2022/05/31 02:30:16;;;;;;;6.00;3.05;;;;;;;-149.78;100.00;50232.84;5111085;27;20156;-70
2022/05/31 02:32:43;;;;;;;6.22;2.97;;;;;;;-149.78;100.00;50225.03;5135036;27;20040;-71
2022/05/31 02:35:10;;;;;;;7.63;3.08;;;;;;;-149.78;100.00;50189.81;5120081;27;20027;-70
2022/05/31 02:37:37;;;;;;;5.18;2.97;;;;;;;-149.78;100.00;50225.03;5131495;27;20027;-71
2022/05/31 02:40:05;;;;;;;5.72;2.80;;;;;;;-149.78;100.00;50240.66;5125208;27;20054;-70
2022/05/31 02:42:32;;;;;;;6.82;2.90;;;;;;;-149.78;100.00;50252.41;5131473;27;20032;-71
2022/05/31 02:44:57;;;;;;;7.05;2.80;;;;;;;-149.78;100.00;50240.66;5115070;27;20028;-70
2022/05/31 02:47:23;;;;;;;4.90;3.08;;;;;;;-149.78;100.00;50217.19;5120489;27;20043;-71
2022/05/31 02:49:49;;;;;;;8.15;2.92;;;;;;;-149.78;100.00;50183.97;5132116;27;20031;-70
2022/05/31 02:52:16;;;;;;;3.97;2.75;;;;;;;-149.78;100.00;50211.34;5130742;27;20164;-71
2022/05/31 02:54:42;;;;;;;6.43;2.85;;;;;;;-149.78;100.00;50217.19;5121730;27;20114;-71
2022/05/31 02:57:08;;;;;;;4.70;2.85;;;;;;;-149.78;100.00;50228.94;5110611;28;20111;-70
2022/05/31 02:59:34;;;;;;;7.93;3.17;;;;;;;-149.78;100.00;50228.94;5105527;27;20031;-71
2022/05/31 03:02:00;;;;;;;6.80;4.78;;;;;;;-149.78;100.00;50221.13;5113686;27;20101;-70
2022/05/31 03:04:26;;;;;;;9.38;3.35;;;;;;;-149.78;100.00;50236.75;5109583;27;20046;-71
2022/05/31 03:06:51;;;;;;;7.28;3.38;;;;;;;-149.78;100.00;50244.59;5114119;27;20414;-70
2022/05/31 03:09:17;;;;;;;6.05;3.47;;;;;;;-149.78;100.00;50238.72;5130317;27;20039;-70
2022/05/31 03:11:55;;;;;;;7.25;3.72;;;;;;;-149.78;100.00;50205.47;5090495;27;20386;-70
2022/05/31 03:14:33;;;;;;;7.93;3.88;;;;;;;-149.78;100.00;50213.28;5107272;27;20023;-70
2022/05/31 03:17:06;;;;;;;7.68;3.78;;;;;;;-149.78;100.00;50232.84;5108300;27;20386;-70
2022/05/31 03:19:37;;;;;;;11.60;4.35;;;;;;;-149.78;100.00;50234.81;5128195;27;20132;-70
2022/05/31 03:22:11;;;;;;;7.88;3.50;;;;;;;-149.78;100.00;50197.66;5126260;27;20029;-70
2022/05/31 03:25:18;;;;;;;7.70;3.50;;;;;;;-149.78;100.00;50252.41;5130976;27;20039;-70
2022/05/31 03:27:44;;;;;;;8.77;3.95;;;;;;;-149.78;100.00;50189.81;5130182;27;20370;-71
2022/05/31 03:30:10;;;;;;;10.80;4.22;;;;;;;-149.78;100.00;50252.41;5111832;27;20597;-70
2022/05/31 03:32:37;;;;;;;10.02;3.83;;;;;;;-149.78;100.00;50236.75;5093030;27;20479;-71
2022/05/31 03:35:04;;;;;;;10.57;4.43;;;;;;;-149.78;100.00;50244.59;5095570;27;20064;-71
2022/05/31 03:37:29;;;;;;;9.55;4.38;;;;;;;-149.78;100.00;50244.59;5128114;27;20031;-70
2022/05/31 03:39:55;;;;;;;13.68;4.47;;;;;;;-149.78;100.00;50213.28;5132643;27;20035;-70
2022/05/31 03:42:20;;;;;;;6.18;3.72;;;;;;;-149.78;100.00;50254.34;5124903;27;20375;-70
2022/05/31 03:44:46;;;;;;;9.73;4.70;;;;;;;-149.78;100.00;50232.84;5126210;27;20031;-70
2022/05/31 03:47:11;;;;;;;10.07;5.55;;;;;;;-149.78;100.00;50236.75;5085253;28;20040;-70
2022/05/31 03:49:37;;;;;;;7.82;4.18;;;;;;;-149.78;100.00;50228.94;5125448;27;20031;-70
2022/05/31 03:52:04;;;;;;;9.68;4.25;;;;;;;-149.78;100.00;50219.16;5104014;28;20062;-70
2022/05/31 03:54:30;;;;;;;6.95;4.45;;;;;;;-149.78;100.00;50232.84;5083396;28;20205;-71
2022/05/31 03:56:56;;;;;;;7.55;4.55;;;;;;;-149.78;100.00;50256.31;5110764;27;20508;-70
2022/05/31 03:59:21;;;;;;;6.50;4.20;;;;;;;-149.78;100.00;50240.66;5112371;28;20027;-70
2022/05/31 04:01:47;;;;;;;12.10;4.32;;;;;;;-149.78;100.00;50254.34;5110248;27;20039;-70
2022/05/31 04:04:13;;;;;;;12.02;5.60;;;;;;;-149.78;100.00;50232.84;5126382;27;20027;-70
2022/05/31 04:06:44;;;;;;;10.00;4.57;;;;;;;-149.78;100.00;50258.28;5125367;27;20483;-70
2022/05/31 04:09:11;;;;;;;7.05;4.20;;;;;;;-149.78;100.00;50244.59;5089210;27;20451;-71
2022/05/31 04:11:40;;;;;;;8.05;4.57;;;;;;;-149.78;100.00;50250.44;5104069;27;20047;-70
2022/05/31 04:14:06;;;;;;;10.90;5.10;;;;;;;-149.78;100.00;50244.59;5106930;27;20031;-70
2022/05/31 04:16:33;;;;;;;6.78;4.28;;;;;;;-149.78;100.00;50252.41;5080176;27;20038;-70
2022/05/31 04:19:21;;;;;;;13.95;4.93;;;;;;;-149.78;100.00;50264.13;5115978;27;20509;-71
2022/05/31 04:21:48;;;;;;;7.45;4.43;;;;;;;-149.78;100.00;50275.88;5102241;27;20031;-70
2022/05/31 04:24:16;;;;;;;8.57;4.50;;;;;;;-149.78;100.00;50232.84;5125786;27;20027;-70
2022/05/31 04:26:47;;;;;;;10.13;4.80;;;;;;;-149.78;100.00;50228.94;5122481;27;20129;-70
2022/05/31 04:29:19;;;;;;;14.43;5.10;;;;;;;-149.78;100.00;50271.97;5124267;27;20050;-70
2022/05/31 04:31:44;;;;;;;14.57;5.50;;;;;;;-149.78;100.00;50238.72;5091297;27;20051;-70
2022/05/31 04:34:12;;;;;;;12.93;5.03;;;;;;;-149.78;100.00;50256.31;5102643;27;20035;-70
2022/05/31 04:36:58;;;;;;;11.20;6.15;;;;;;;-149.78;100.00;50225.03;5123680;27;20040;-71
2022/05/31 04:39:49;;;;;;;8.60;4.93;;;;;;;-149.78;100.00;50252.41;5086791;28;20078;-70
2022/05/31 04:42:16;;;;;;;9.30;4.95;;;;;;;-149.78;100.00;50240.66;5033067;28;20045;-70
2022/05/31 04:44:56;;;;;;;9.63;5.38;;;;;;;-149.78;100.00;50260.22;5083301;28;20147;-70
2022/05/31 04:47:22;;;;;;;14.40;5.53;;;;;;;-149.78;100.00;50244.59;5062401;28;20120;-70
2022/05/31 04:49:49;;;;;;;10.52;5.53;;;;;;;-149.78;100.00;50228.94;5078609;28;20056;-70
2022/05/31 04:52:17;;;;;;;12.07;6.05;;;;;;;-149.78;100.00;50260.22;5062205;28;20048;-71
2022/05/31 04:54:43;;;;;;;9.65;5.70;;;;;;;-149.78;100.00;50260.22;5050500;28;20040;-70
2022/05/31 04:57:31;;;;;;;10.63;5.38;;;;;;;-149.78;100.00;50213.28;5053326;28;20128;-71
2022/05/31 04:59:57;;;;;;;12.32;5.85;;;;;;;-149.78;100.00;50223.06;5079223;28;20565;-71
2022/05/31 05:02:30;;;;;;;10.45;5.82;;;;;;;-149.78;100.00;50236.75;5089686;28;20039;-70
2022/05/31 05:04:56;;;;;;;11.15;5.07;;;;;;;-149.78;100.00;50236.75;5072880;28;20078;-70
2022/05/31 05:07:22;;;;;;;11.73;5.78;;;;;;;-149.78;100.00;50256.31;5081293;28;20114;-70
2022/05/31 05:10:14;;;;;;;9.00;5.20;;;;;;;-149.78;100.00;50244.59;5080144;27;20039;-70
2022/05/31 05:13:04;;;;;;;14.55;5.70;;;;;;;-149.78;100.00;50213.28;5122479;27;20092;-70
2022/05/31 05:16:00;;;;;;;10.93;4.88;;;;;;;-149.78;100.00;50273.91;5113532;27;20042;-70
2022/05/31 05:18:26;;;;;;;10.40;5.40;;;;;;;-149.78;100.00;50221.13;5091837;27;20510;-71
2022/05/31 05:20:53;;;;;;;8.60;4.90;;;;;;;-149.78;100.00;50189.81;5111308;27;20398;-70
2022/05/31 05:23:34;;;;;;;10.02;5.18;;;;;;;-149.78;100.00;50301.28;5110597;27;20123;-70
2022/05/31 05:26:03;;;;;;;9.85;5.03;;;;;;;-149.78;100.00;50264.13;5124510;27;20052;-70
2022/05/31 05:31:40;;;;;;;11.95;5.35;;;;;;;-149.78;100.00;50236.75;5123868;27;20046;-69
2022/05/31 05:34:25;;;;;;;8.13;4.68;;;;;;;-149.78;100.00;50275.88;5096855;28;20035;-69
2022/05/31 05:36:52;;;;;;;11.05;5.70;;;;;;;-149.78;100.00;50246.53;5107161;28;20130;-69
2022/05/31 05:39:40;;;;;;;10.18;4.90;;;;;;;-149.78;100.00;50211.34;5086882;27;20113;-70
2022/05/31 05:42:28;;;;;;;10.98;5.05;;;;;;;-149.78;100.00;50189.81;5123607;27;20038;-69
2022/05/31 05:45:18;;;;;;;11.27;5.32;;;;;;;-149.78;100.00;50217.19;5084510;28;20032;-70
2022/05/31 05:47:45;;;;;;;11.68;5.07;;;;;;;-149.78;100.00;50234.81;5124458;27;20046;-69
2022/05/31 05:50:11;;;;;;;10.73;5.43;;;;;;;-149.78;100.00;50252.41;5108371;28;20036;-70
2022/05/31 05:52:46;;;;;;;;;;;;;;;-149.78;100.00;50248.50;5125060;27;20106;-69
2022/05/31 05:55:19;;;;;;;10.30;5.35;;;;;;;-149.78;100.00;50268.03;5115545;27;20592;-70
2022/05/31 05:57:50;;;;;;;12.35;5.30;;;;;;;-149.78;100.00;50268.03;5130469;27;20156;-70
2022/05/31 06:00:24;;;;;;;10.32;5.22;;;;;;;-149.78;100.00;50223.06;5090377;28;20035;-69
2022/05/31 06:03:07;;;;;;;11.85;5.63;;;;;;;-149.78;100.00;50197.66;5130297;27;20034;-68
2022/05/31 06:05:35;;;;;;;12.27;6.45;;;;;;;-149.78;100.00;50256.31;5121936;27;20030;-68
2022/05/31 06:08:13;;;;;;;11.27;5.80;;;;;;;-149.78;100.00;50205.47;5097534;27;20087;-69
2022/05/31 06:10:49;;;;;;;13.50;6.45;;;;;;;-149.78;100.00;50240.66;5120076;27;20416;-69
2022/05/31 06:13:21;;;;;;;11.25;6.10;;;;;;;-149.78;100.00;50236.75;5107647;28;20030;-69
2022/05/31 06:15:56;;;;;;;11.38;6.45;;;;;;;-149.78;100.00;50256.31;5118352;27;20117;-69
2022/05/31 06:18:32;;;;;;;15.20;7.32;;;;;;;-149.78;100.00;50240.66;5128788;27;20437;-68
2022/05/31 06:21:07;;;;;;;11.02;5.93;;;;;;;-149.78;100.00;50217.19;5119861;27;20479;-69
2022/05/31 06:24:01;;;;;;;12.95;6.07;;;;;;;-149.78;100.00;50256.31;5126994;27;20042;-68
2022/05/31 06:26:29;;;;;;;13.43;7.90;;;;;;;-149.78;100.00;50240.66;5131345;27;20535;-68
2022/05/31 06:28:59;;;;;;;12.07;6.13;;;;;;;-149.78;100.00;50252.41;5123533;27;20420;-68
2022/05/31 06:31:25;;;;;;;11.90;6.00;;;;;;;-149.78;100.00;50252.41;5114468;27;20039;-69
2022/05/31 06:33:51;;;;;;;15.20;6.55;;;;;;;-149.78;100.00;50240.66;5126401;27;20108;-68
2022/05/31 06:36:39;;;;;;;12.35;6.25;;;;;;;-149.78;100.00;50217.19;5120207;27;20039;-68
2022/05/31 06:39:29;;;;;;;13.30;6.53;;;;;;;-149.78;100.00;50246.53;5105524;27;20054;-69
2022/05/31 06:42:04;;;;;;;15.68;6.97;;;;;;;-149.78;100.00;50252.41;5128273;27;20035;-68
2022/05/31 06:44:34;;;;;;;13.13;6.32;;;;;;;-149.78;100.00;50248.50;5133573;27;20033;-68
2022/05/31 06:47:04;;;;;;;12.40;6.65;;;;;;;-149.78;100.00;50271.97;5135695;27;20031;-68
2022/05/31 06:49:50;;;;;;;14.65;6.57;;;;;;;-149.78;100.00;50260.22;5132806;27;20498;-68
2022/05/31 06:58:06;;;;;;;12.05;6.93;;;;;;;-149.78;100.00;50252.41;5130382;27;20042;-68
2022/05/31 07:00:33;;;;;;;15.57;7.57;;;;;;;-149.78;100.00;50225.03;5119504;27;20039;-68
2022/05/31 07:03:15;;;;;;;14.00;7.03;;;;;;;-149.78;100.00;50244.59;5131136;27;20039;-68
2022/05/31 07:05:46;;;;;;;14.00;7.20;;;;;;;-149.78;100.00;50279.78;5099566;27;20036;-68
2022/05/31 07:08:32;;;;;;;13.75;7.43;;;;;;;-149.78;100.00;50248.50;5103284;27;20042;-68
2022/05/31 07:11:00;;;;;;;17.75;7.78;;;;;;;-149.78;100.00;50225.03;5126123;27;20043;-68
2022/05/31 07:13:26;;;;;;;17.00;8.05;;;;;;;-149.78;100.00;50221.13;5077763;28;20065;-69
2022/05/31 07:15:52;;;;;;;15.02;8.02;;;;;;;-149.78;100.00;50236.75;5108475;27;20043;-69
2022/05/31 07:18:19;;;;;;;19.67;8.45;;;;;;;-149.78;100.00;50252.41;5102613;27;20086;-69
2022/05/31 07:21:03;;;;;;;21.90;8.68;;;;;;;-149.78;100.00;50275.88;5099648;27;20379;-69
2022/05/31 07:23:53;;;;;;;19.02;8.85;;;;;;;-149.78;100.00;50254.34;5132614;27;20067;-69
2022/05/31 07:26:21;;;;;;;19.98;8.65;;;;;;;-149.78;100.00;50244.59;5121509;27;20084;-68
2022/05/31 07:28:51;;;;;;;17.67;8.65;;;;;;;-149.78;100.00;50258.28;5120826;27;20035;-69
2022/05/31 07:31:16;;;;;;;14.95;7.75;;;;;;;-149.78;100.00;50268.03;5120787;27;20382;-68
2022/05/31 07:34:02;;;;;;;14.38;7.50;;;;;;;-149.78;100.00;50264.13;5119376;27;20043;-69
2022/05/31 07:36:37;;;;;;;15.27;7.45;;;;;;;-149.78;100.00;50232.84;5089625;27;20112;-69
2022/05/31 07:39:03;;;;;;;14.00;7.32;;;;;;;-149.78;100.00;50215.25;5122964;27;20122;-69
2022/05/31 07:41:32;;;;;;;15.27;7.70;;;;;;;-149.78;100.00;50248.50;5125012;27;20077;-69
2022/05/31 07:44:00;;;;;;;21.20;9.45;;;;;;;-149.78;100.00;50248.50;5110606;27;20050;-69
2022/05/31 07:46:46;;;;;;;19.05;7.70;;;;;;;-149.78;100.00;50277.81;5123755;27;20037;-69
2022/05/31 07:49:12;;;;;;;15.77;6.82;;;;;;;-149.78;100.00;50228.94;5106393;28;20049;-69
2022/05/31 07:51:38;;;;;;;16.77;6.25;;;;;;;-149.78;100.00;50256.31;5121243;27;20118;-68
2022/05/31 07:54:07;;;;;;;13.80;5.97;;;;;;;-149.78;100.00;50232.84;5126872;27;20047;-69
2022/05/31 07:56:34;;;;;;;9.95;5.82;;;;;;;-149.78;100.00;50244.59;5105426;27;20028;-69
2022/05/31 07:58:59;;;;;;;14.45;5.40;;;;;;;-149.78;100.00;50271.97;5129571;27;20027;-69
2022/05/31 08:01:46;;;;;;;13.23;5.88;;;;;;;-149.78;100.00;50232.84;5111686;27;20092;-69
2022/05/31 08:04:14;;;;;;;12.10;6.10;;;;;;;-149.78;100.00;50199.59;5099866;27;20027;-69
2022/05/31 08:06:41;;;;;;;13.07;6.32;;;;;;;-149.78;100.00;50228.94;5124772;27;20043;-69
2022/05/31 08:09:06;;;;;;;15.07;6.80;;;;;;;-149.78;100.00;50248.50;5080631;27;20572;-69
2022/05/31 08:11:34;;;;;;;17.90;7.22;;;;;;;-149.78;100.00;50268.03;5114613;27;20051;-69
2022/05/31 08:14:22;;;;;;;16.95;6.85;;;;;;;-149.78;100.00;50248.50;5113599;27;20043;-69
2022/05/31 08:16:52;;;;;;;14.52;6.43;;;;;;;-149.78;100.00;50252.41;5113161;27;20085;-69
2022/05/31 08:19:38;;;;;;;11.90;6.22;;;;;;;-149.78;100.00;50221.13;5100215;27;20375;-69
2022/05/31 08:22:08;;;;;;;19.75;8.77;;;;;;;-149.78;100.00;50240.66;5098861;27;20028;-69
2022/05/31 08:24:58;;;;;;;11.15;5.70;;;;;;;-149.78;100.00;50217.19;5112954;27;20120;-69
2022/05/31 08:27:26;;;;;;;7.63;4.70;;;;;;;-149.78;100.00;50240.66;5095885;27;20035;-69
2022/05/31 08:29:52;;;;;;;14.30;4.97;;;;;;;-149.78;100.00;50209.38;5092575;27;20228;-69
2022/05/31 08:32:18;;;;;;;8.40;4.15;;;;;;;-149.78;100.00;50201.56;5100167;27;20031;-69
2022/05/31 08:34:48;;;;;;;7.18;4.47;;;;;;;-149.78;100.00;50199.59;5118733;27;20032;-69
2022/05/31 08:37:16;;;;;;;9.45;4.60;;;;;;;-149.78;100.00;50213.28;5098866;27;20047;-69
2022/05/31 08:39:43;;;;;;;8.70;4.80;;;;;;;-149.78;100.00;50162.44;5117826;27;20039;-69
2022/05/31 08:42:57;;;;;;;8.93;4.85;;;;;;;-149.78;100.00;50187.88;5118503;27;20035;-68
2022/05/31 08:45:53;;;;;;;8.43;4.10;;;;;;;-149.78;100.00;50168.31;5111662;27;20487;-68
2022/05/31 08:48:32;;;;;;;7.10;4.05;;;;;;;-149.78;100.00;50185.91;5096504;28;20081;-69
2022/05/31 08:57:42;;;;;;;6.80;4.43;;;;;;;-149.78;100.00;50166.34;5115136;27;20360;-71
2022/05/31 09:00:19;;;;;;;6.00;3.88;;;;;;;-149.78;100.00;50185.91;5116376;27;20049;-70
2022/05/31 09:03:27;;;;;;;4.95;3.03;;;;;;;-149.78;100.00;50187.88;5099486;27;20482;-69
2022/05/31 09:06:05;;;;;;;6.30;3.88;;;;;;;-149.78;100.00;50197.66;5121857;27;20418;-70
2022/05/31 09:09:20;;;;;;;10.52;4.00;;;;;;;-149.78;100.00;50146.81;5110726;27;20055;-70
2022/05/31 09:12:04;;;;;;;8.90;4.25;;;;;;;-149.78;100.00;50146.81;5090202;27;20047;-69
2022/05/31 09:14:50;;;;;;;6.93;4.38;;;;;;;-149.78;100.00;50160.50;5108779;27;20108;-70
2022/05/31 09:17:45;;;;;;;9.50;4.70;;;;;;;-149.78;100.00;50144.84;5107464;27;20097;-70
2022/05/31 09:20:51;;;;;;;6.32;4.05;;;;;;;-149.78;100.00;50166.34;5106527;27;20047;-69
2022/05/31 09:23:33;;;;;;;5.65;4.07;;;;;;;-149.78;100.00;50127.25;5099938;28;20035;-67
2022/05/31 09:26:37;;;;;;;6.43;3.58;;;;;;;-149.78;100.00;50107.69;5097004;27;20050;-68
2022/05/31 09:29:09;;;;;;;4.97;3.10;;;;;;;-149.78;100.00;50123.34;5080834;27;20093;-68
2022/05/31 09:31:47;;;;;;;8.82;3.65;;;;;;;-149.78;100.00;50123.34;5113095;27;20049;-69
2022/05/31 09:34:27;;;;;;;6.05;3.65;;;;;;;-149.78;100.00;50131.16;5114938;27;20042;-69
2022/05/31 09:37:26;;;;;;;5.80;3.42;;;;;;;-149.78;100.00;50119.41;5117375;27;20046;-68
2022/05/31 09:40:33;;;;;;;6.22;3.60;;;;;;;-149.78;100.00;50135.06;5110023;27;20102;-68
2022/05/31 09:43:06;;;;;;;4.65;3.10;;;;;;;-149.78;100.00;50138.97;5104620;28;20136;-68
2022/05/31 09:45:58;;;;;;;4.10;2.78;;;;;;;-149.78;100.00;50154.63;5100785;27;20107;-69
2022/05/31 09:48:24;;;;;;;7.00;3.13;;;;;;;-149.78;100.00;50131.16;5122269;27;20027;-69
2022/05/31 09:51:22;;;;;;;4.47;2.60;;;;;;;-149.78;100.00;50185.91;5087714;28;20039;-69
2022/05/31 09:57:24;;;;;;;6.72;2.88;;;;;;;-149.78;100.00;50174.19;5043045;28;20035;-69
2022/05/31 10:00:11;;;;;;;4.95;2.90;;;;;;;-149.78;100.00;50185.91;5118158;27;20092;-69
2022/05/31 10:02:40;;;;;;;5.30;3.40;;;;;;;-149.78;100.00;50150.72;5126823;27;20109;-69
2022/05/31 10:05:16;;;;;;;4.93;3.20;;;;;;;-149.78;100.00;50170.25;5099999;27;20036;-69
2022/05/31 10:07:44;;;;;;;5.28;3.25;;;;;;;-149.78;100.00;50137.03;5122277;27;20046;-69
2022/05/31 10:10:15;;;;;;;7.30;3.95;;;;;;;-149.78;100.00;50140.94;5089254;28;20497;-69
2022/05/31 10:12:59;;;;;;;8.85;4.03;;;;;;;-149.78;100.00;50111.59;5106955;28;20051;-69
2022/05/31 10:15:43;;;;;;;7.28;3.88;;;;;;;-149.78;100.00;50123.34;5105384;27;20054;-69
2022/05/31 10:18:25;;;;;;;8.73;4.28;;;;;;;-149.78;100.00;50138.97;5106728;28;20023;-69
2022/05/31 10:21:04;;;;;;;9.10;4.47;;;;;;;-149.78;100.00;50170.25;5097617;27;20043;-69
2022/05/31 10:23:37;;;;;;;11.07;4.90;;;;;;;-149.78;100.00;50135.06;5099317;27;20104;-69
2022/05/31 10:26:03;;;;;;;6.72;3.90;;;;;;;-149.78;100.00;50160.50;5098372;28;20487;-69
2022/05/31 10:28:40;;;;;;;4.53;3.10;;;;;;;-149.78;100.00;50146.81;5097280;28;20088;-69
2022/05/31 10:31:14;;;;;;;3.38;2.55;;;;;;;-149.78;100.00;50135.06;5099935;28;20040;-69
2022/05/31 10:33:40;;;;;;;3.30;2.42;;;;;;;-149.78;100.00;50115.50;5096269;28;20487;-69
2022/05/31 10:36:19;;;;;;;3.85;1.95;;;;;;;-149.78;100.00;50099.88;5106129;28;20098;-69
2022/05/31 10:38:51;;;;;;;2.88;2.05;;;;;;;-149.78;100.00;50099.88;5112681;27;20035;-69
2022/05/31 10:41:29;;;;;;;2.47;1.50;;;;;;;-149.78;100.00;50076.41;5109142;28;20446;-69
2022/05/31 10:44:15;;;;;;;3.88;2.08;;;;;;;-149.78;100.00;50076.41;5103139;27;20467;-69
2022/05/31 10:46:46;;;;;;;4.78;1.88;;;;;;;-149.78;100.00;50082.25;5104847;27;20044;-69
2022/05/31 10:49:21;;;;;;;1.73;1.55;;;;;;;-149.78;100.00;50099.88;5105240;28;20027;-70
2022/05/31 10:52:04;;;;;;;1.77;1.63;;;;;;;-149.78;100.00;50125.28;5099593;28;20032;-69
2022/05/31 10:54:48;;;;;;;2.10;1.70;;;;;;;-149.78;100.00;50115.50;5112007;28;20038;-69
2022/05/31 10:57:29;;;;;;;2.40;1.75;;;;;;;-149.78;100.00;50056.84;5084146;28;20040;-70
2022/05/31 11:00:18;;;;;;;2.47;1.70;;;;;;;-149.78;100.00;50097.91;5115170;28;20032;-70
2022/05/31 11:02:55;;;;;;;3.53;1.60;;;;;;;-149.78;100.00;50119.41;5101561;27;20020;-69
2022/05/31 11:06:11;;;;;;;2.35;1.38;;;;;;;-149.78;100.00;50084.22;5102818;27;20055;-69
2022/05/31 11:12:10;;;;;;;2.72;1.80;;;;;;;-149.78;100.00;50099.88;5121140;27;20040;-70
2022/05/31 11:14:54;;;;;;;2.20;1.80;;;;;;;-149.78;100.00;50049.03;5128564;27;20031;-70
2022/05/31 11:17:53;;;;;;;3.03;1.80;;;;;;;-149.78;100.00;50052.94;5132137;27;20080;-69
2022/05/31 11:20:37;;;;;;;2.13;1.70;;;;;;;-149.78;100.00;50127.25;5123925;27;20055;-70
2022/05/31 11:23:14;;;;;;;1.33;1.10;;;;;;;-149.78;100.00;50084.22;5123989;27;20080;-70
2022/05/31 11:26:13;;;;;;;1.25;1.10;;;;;;;-149.78;100.00;50080.31;5107480;27;20057;-70
2022/05/31 11:29:20;;;;;;;1.48;1.17;;;;;;;-149.78;100.00;50070.53;5104699;27;20074;-69
2022/05/31 11:31:57;;;;;;;1.38;0.80;;;;;;;-149.78;100.00;50094.00;5107661;27;20046;-69
2022/05/31 11:34:47;;;;;;;1.15;0.88;;;;;;;-149.78;100.00;50062.72;5119114;27;20028;-70
2022/05/31 11:37:32;;;;;;;0.80;0.80;;;;;;;-149.78;100.00;50099.88;5114429;27;20763;-70
2022/05/31 11:40:17;;;;;;;0.90;0.90;;;;;;;-149.78;100.00;50084.22;5122364;27;20118;-70
2022/05/31 11:43:03;;;;;;;1.92;1.23;;;;;;;-149.78;100.00;50099.88;5096963;27;20035;-71
2022/05/31 11:46:04;;;;;;;1.02;0.90;;;;;;;-149.78;100.00;50072.50;5102191;27;20027;-68
2022/05/31 11:48:55;;;;;;;1.10;0.90;;;;;;;-149.78;100.00;50129.19;5113726;27;20420;-67
2022/05/31 11:51:51;;;;;;;1.70;1.20;;;;;;;-149.78;100.00;50099.88;5098901;28;20398;-68
2022/05/31 11:54:24;;;;;;;1.60;1.10;;;;;;;-149.78;100.00;50111.59;5080722;27;20473;-69
2022/05/31 11:57:17;;;;;;;2.63;1.30;;;;;;;-149.78;100.00;50121.38;5120016;27;20386;-67
2022/05/31 12:00:04;;;;;;;1.20;1.10;;;;;;;-149.78;100.00;50158.53;5121772;27;20042;-70
2022/05/31 12:02:50;;;;;;;2.55;1.10;;;;;;;-149.78;100.00;50166.34;5099618;27;20456;-69
2022/05/31 12:05:29;;;;;;;1.38;0.90;;;;;;;-149.78;100.00;50119.41;5112266;27;20044;-69